sensor_id;sensor_type;location;lat;lon;timestamp;pressure;altitude;pressure_sealevel;temperature;humidity
62057;BME280;48016;50.284;18.860;2022-12-18T00:01:50;99590.34;;;-4.63;80.40
62057;BME280;48016;50.284;18.860;2022-12-18T00:04:21;99590.31;;;-4.64;80.28
62057;BME280;48016;50.284;18.860;2022-12-18T00:06:48;99596.70;;;-4.67;80.28
62057;BME280;48016;50.284;18.860;2022-12-18T00:09:15;99599.47;;;-4.71;80.14
62057;BME280;48016;50.284;18.860;2022-12-18T00:11:41;99601.06;;;-4.73;80.43
62057;BME280;48016;50.284;18.860;2022-12-18T00:14:08;99601.45;;;-4.76;80.36
62057;BME280;48016;50.284;18.860;2022-12-18T00:16:35;99601.38;;;-4.75;80.43
62057;BME280;48016;50.284;18.860;2022-12-18T00:19:03;99602.23;;;-4.74;80.44
62057;BME280;48016;50.284;18.860;2022-12-18T00:21:31;99602.53;;;-4.74;80.27
62057;BME280;48016;50.284;18.860;2022-12-18T00:23:58;99613.61;;;-4.74;80.39
62057;BME280;48016;50.284;18.860;2022-12-18T00:26:25;99612.73;;;-4.74;80.35
62057;BME280;48016;50.284;18.860;2022-12-18T00:28:52;99615.81;;;-4.73;80.50
62057;BME280;48016;50.284;18.860;2022-12-18T00:31:20;99617.06;;;-4.73;80.35
62057;BME280;48016;50.284;18.860;2022-12-18T00:33:47;99618.29;;;-4.73;80.35
62057;BME280;48016;50.284;18.860;2022-12-18T00:36:15;99614.20;;;-4.72;80.24
62057;BME280;48016;50.284;18.860;2022-12-18T00:38:42;99616.66;;;-4.72;80.16
62057;BME280;48016;50.284;18.860;2022-12-18T00:41:08;99621.88;;;-4.72;80.25
62057;BME280;48016;50.284;18.860;2022-12-18T00:43:35;99629.01;;;-4.71;80.28
62057;BME280;48016;50.284;18.860;2022-12-18T00:46:02;99631.34;;;-4.69;80.64
62057;BME280;48016;50.284;18.860;2022-12-18T00:48:29;99633.50;;;-4.68;80.35
62057;BME280;48016;50.284;18.860;2022-12-18T00:50:55;99637.98;;;-4.67;80.38
62057;BME280;48016;50.284;18.860;2022-12-18T00:53:22;99637.45;;;-4.66;80.31
62057;BME280;48016;50.284;18.860;2022-12-18T00:55:48;99639.34;;;-4.66;80.20
62057;BME280;48016;50.284;18.860;2022-12-18T00:58:15;99644.70;;;-4.65;80.32
62057;BME280;48016;50.284;18.860;2022-12-18T01:00:42;99650.80;;;-4.64;80.44
62057;BME280;48016;50.284;18.860;2022-12-18T01:03:09;99655.13;;;-4.63;80.26
62057;BME280;48016;50.284;18.860;2022-12-18T01:05:39;99654.39;;;-4.63;80.24
62057;BME280;48016;50.284;18.860;2022-12-18T01:08:06;99660.21;;;-4.63;80.41
62057;BME280;48016;50.284;18.860;2022-12-18T01:10:32;99661.13;;;-4.63;80.24
62057;BME280;48016;50.284;18.860;2022-12-18T01:12:59;99663.70;;;-4.65;80.27
62057;BME280;48016;50.284;18.860;2022-12-18T01:15:25;99661.48;;;-4.63;80.50
62057;BME280;48016;50.284;18.860;2022-12-18T01:17:52;99664.66;;;-4.62;80.34
62057;BME280;48016;50.284;18.860;2022-12-18T01:20:18;99660.38;;;-4.57;80.52
62057;BME280;48016;50.284;18.860;2022-12-18T01:22:45;99657.28;;;-4.50;80.20
62057;BME280;48016;50.284;18.860;2022-12-18T01:25:11;99657.46;;;-4.46;80.42
62057;BME280;48016;50.284;18.860;2022-12-18T01:27:38;99660.10;;;-4.40;80.86
62057;BME280;48016;50.284;18.860;2022-12-18T01:30:04;99666.46;;;-4.34;80.53
62057;BME280;48016;50.284;18.860;2022-12-18T01:32:31;99665.60;;;-4.27;80.80
62057;BME280;48016;50.284;18.860;2022-12-18T01:34:58;99667.27;;;-4.23;80.86
62057;BME280;48016;50.284;18.860;2022-12-18T01:37:24;99661.73;;;-4.19;80.79
62057;BME280;48016;50.284;18.860;2022-12-18T01:39:52;99664.97;;;-4.18;80.78
62057;BME280;48016;50.284;18.860;2022-12-18T01:42:20;99670.04;;;-4.18;80.58
62057;BME280;48016;50.284;18.860;2022-12-18T01:49:56;99676.38;;;-4.19;80.52
62057;BME280;48016;50.284;18.860;2022-12-18T01:52:23;99675.27;;;-4.19;80.43
62057;BME280;48016;50.284;18.860;2022-12-18T01:54:51;99678.16;;;-4.20;80.34
62057;BME280;48016;50.284;18.860;2022-12-18T01:57:18;99686.73;;;-4.21;80.16
62057;BME280;48016;50.284;18.860;2022-12-18T01:59:45;99687.67;;;-4.24;79.99
62057;BME280;48016;50.284;18.860;2022-12-18T02:02:14;99693.45;;;-4.26;79.96
62057;BME280;48016;50.284;18.860;2022-12-18T02:04:41;99696.09;;;-4.28;79.95
62057;BME280;48016;50.284;18.860;2022-12-18T02:09:36;99705.78;;;-4.33;79.75
62057;BME280;48016;50.284;18.860;2022-12-18T02:14:35;99716.04;;;-4.37;79.80
62057;BME280;48016;50.284;18.860;2022-12-18T02:28:00;99731.49;;;-4.43;80.11
62057;BME280;48016;50.284;18.860;2022-12-18T02:30:29;99730.16;;;-4.44;80.44
62057;BME280;48016;50.284;18.860;2022-12-18T02:32:58;99734.02;;;-4.46;80.01
62057;BME280;48016;50.284;18.860;2022-12-18T02:35:27;99735.98;;;-4.47;80.15
62057;BME280;48016;50.284;18.860;2022-12-18T02:37:55;99734.83;;;-4.48;80.42
62057;BME280;48016;50.284;18.860;2022-12-18T02:40:22;99732.66;;;-4.49;80.29
62057;BME280;48016;50.284;18.860;2022-12-18T02:42:50;99733.55;;;-4.51;80.24
62057;BME280;48016;50.284;18.860;2022-12-18T02:45:17;99741.43;;;-4.53;80.33
62057;BME280;48016;50.284;18.860;2022-12-18T02:47:44;99746.78;;;-4.54;80.65
62057;BME280;48016;50.284;18.860;2022-12-18T02:52:49;99745.48;;;-4.56;80.40
62057;BME280;48016;50.284;18.860;2022-12-18T03:00:48;99768.33;;;-4.60;80.41
62057;BME280;48016;50.284;18.860;2022-12-18T03:03:19;99776.65;;;-4.63;80.35
62057;BME280;48016;50.284;18.860;2022-12-18T03:05:57;99780.48;;;-4.64;80.38
62057;BME280;48016;50.284;18.860;2022-12-18T03:08:31;99780.36;;;-4.65;80.58
62057;BME280;48016;50.284;18.860;2022-12-18T03:11:09;99779.34;;;-4.65;80.60
62057;BME280;48016;50.284;18.860;2022-12-18T03:16:02;99784.17;;;-4.62;80.47
62057;BME280;48016;50.284;18.860;2022-12-18T03:18:30;99786.19;;;-4.59;80.49
62057;BME280;48016;50.284;18.860;2022-12-18T03:20:59;99784.59;;;-4.54;80.62
62057;BME280;48016;50.284;18.860;2022-12-18T03:23:30;99783.31;;;-4.49;80.84
62057;BME280;48016;50.284;18.860;2022-12-18T03:25:58;99781.61;;;-4.45;80.69
62057;BME280;48016;50.284;18.860;2022-12-18T03:28:25;99781.93;;;-4.40;81.02
62057;BME280;48016;50.284;18.860;2022-12-18T03:30:55;99785.31;;;-4.36;80.85
62057;BME280;48016;50.284;18.860;2022-12-18T03:33:37;99787.83;;;-4.33;81.00
62057;BME280;48016;50.284;18.860;2022-12-18T03:36:05;99790.73;;;-4.29;80.99
62057;BME280;48016;50.284;18.860;2022-12-18T03:38:31;99792.88;;;-4.27;80.81
62057;BME280;48016;50.284;18.860;2022-12-18T03:48:43;99801.14;;;-4.29;80.36
62057;BME280;48016;50.284;18.860;2022-12-18T03:51:13;99804.69;;;-4.34;80.16
62057;BME280;48016;50.284;18.860;2022-12-18T03:56:40;99809.03;;;-4.40;80.22
62057;BME280;48016;50.284;18.860;2022-12-18T03:59:08;99814.14;;;-4.43;80.26
62057;BME280;48016;50.284;18.860;2022-12-18T04:01:38;99806.26;;;-4.45;79.97
62057;BME280;48016;50.284;18.860;2022-12-18T04:04:06;99813.60;;;-4.49;80.21
62057;BME280;48016;50.284;18.860;2022-12-18T04:06:33;99814.70;;;-4.52;80.11
62057;BME280;48016;50.284;18.860;2022-12-18T04:09:00;99819.80;;;-4.54;80.21
62057;BME280;48016;50.284;18.860;2022-12-18T04:11:27;99819.08;;;-4.56;80.34
62057;BME280;48016;50.284;18.860;2022-12-18T04:13:57;99822.27;;;-4.59;80.36
62057;BME280;48016;50.284;18.860;2022-12-18T04:16:25;99826.23;;;-4.60;80.22
62057;BME280;48016;50.284;18.860;2022-12-18T04:18:52;99824.94;;;-4.61;80.31
62057;BME280;48016;50.284;18.860;2022-12-18T04:21:18;99825.14;;;-4.61;80.42
62057;BME280;48016;50.284;18.860;2022-12-18T04:23:45;99829.89;;;-4.62;80.17
62057;BME280;48016;50.284;18.860;2022-12-18T04:26:12;99833.66;;;-4.62;80.32
62057;BME280;48016;50.284;18.860;2022-12-18T04:28:38;99838.36;;;-4.64;80.42
62057;BME280;48016;50.284;18.860;2022-12-18T04:31:04;99836.00;;;-4.65;80.51
62057;BME280;48016;50.284;18.860;2022-12-18T04:33:31;99840.42;;;-4.66;80.56
62057;BME280;48016;50.284;18.860;2022-12-18T04:35:57;99839.56;;;-4.66;80.54
62057;BME280;48016;50.284;18.860;2022-12-18T04:38:24;99846.52;;;-4.67;80.68
62057;BME280;48016;50.284;18.860;2022-12-18T04:40:50;99848.11;;;-4.69;80.58
62057;BME280;48016;50.284;18.860;2022-12-18T04:43:17;99850.49;;;-4.71;80.62
62057;BME280;48016;50.284;18.860;2022-12-18T04:45:43;99854.52;;;-4.70;80.63
62057;BME280;48016;50.284;18.860;2022-12-18T04:48:10;99852.58;;;-4.70;80.66
62057;BME280;48016;50.284;18.860;2022-12-18T04:50:36;99854.19;;;-4.71;80.79
62057;BME280;48016;50.284;18.860;2022-12-18T04:53:02;99858.46;;;-4.71;80.59
62057;BME280;48016;50.284;18.860;2022-12-18T04:55:29;99865.50;;;-4.71;80.76
62057;BME280;48016;50.284;18.860;2022-12-18T04:57:55;99870.59;;;-4.71;80.88
62057;BME280;48016;50.284;18.860;2022-12-18T05:00:22;99875.20;;;-4.72;80.90
62057;BME280;48016;50.284;18.860;2022-12-18T05:02:48;99879.71;;;-4.73;80.58
62057;BME280;48016;50.284;18.860;2022-12-18T05:05:15;99883.05;;;-4.73;80.73
62057;BME280;48016;50.284;18.860;2022-12-18T05:07:41;99893.10;;;-4.69;80.83
62057;BME280;48016;50.284;18.860;2022-12-18T05:10:08;99889.53;;;-4.64;81.07
62057;BME280;48016;50.284;18.860;2022-12-18T05:12:35;99893.80;;;-4.58;81.06
62057;BME280;48016;50.284;18.860;2022-12-18T05:15:21;99888.78;;;-4.51;80.88
62057;BME280;48016;50.284;18.860;2022-12-18T05:17:48;99894.42;;;-4.47;81.15
62057;BME280;48016;50.284;18.860;2022-12-18T05:20:14;99896.77;;;-4.44;81.27
62057;BME280;48016;50.284;18.860;2022-12-18T05:22:41;99900.27;;;-4.43;81.04
62057;BME280;48016;50.284;18.860;2022-12-18T05:25:07;99898.80;;;-4.43;80.88
62057;BME280;48016;50.284;18.860;2022-12-18T05:27:34;99898.04;;;-4.42;81.05
62057;BME280;48016;50.284;18.860;2022-12-18T05:30:00;99895.48;;;-4.38;81.14
62057;BME280;48016;50.284;18.860;2022-12-18T05:32:27;99895.30;;;-4.36;80.84
62057;BME280;48016;50.284;18.860;2022-12-18T05:34:53;99899.16;;;-4.36;80.70
62057;BME280;48016;50.284;18.860;2022-12-18T05:37:20;99903.88;;;-4.38;80.65
62057;BME280;48016;50.284;18.860;2022-12-18T05:39:47;99908.36;;;-4.41;80.55
62057;BME280;48016;50.284;18.860;2022-12-18T05:42:13;99910.46;;;-4.45;80.50
62057;BME280;48016;50.284;18.860;2022-12-18T05:44:39;99912.06;;;-4.48;80.27
62057;BME280;48016;50.284;18.860;2022-12-18T05:47:06;99912.88;;;-4.49;80.43
62057;BME280;48016;50.284;18.860;2022-12-18T05:49:33;99919.08;;;-4.52;80.69
62057;BME280;48016;50.284;18.860;2022-12-18T05:51:59;99915.98;;;-4.55;80.29
62057;BME280;48016;50.284;18.860;2022-12-18T05:54:29;99919.96;;;-4.59;80.41
62057;BME280;48016;50.284;18.860;2022-12-18T05:56:55;99921.49;;;-4.63;80.43
62057;BME280;48016;50.284;18.860;2022-12-18T05:59:22;99920.80;;;-4.67;80.43
62057;BME280;48016;50.284;18.860;2022-12-18T06:01:48;99926.36;;;-4.71;80.39
62057;BME280;48016;50.284;18.860;2022-12-18T06:04:15;99924.12;;;-4.77;80.28
62057;BME280;48016;50.284;18.860;2022-12-18T06:06:41;99928.33;;;-4.81;80.63
62057;BME280;48016;50.284;18.860;2022-12-18T06:09:08;99933.50;;;-4.84;80.95
62057;BME280;48016;50.284;18.860;2022-12-18T06:11:36;99934.87;;;-4.88;80.64
62057;BME280;48016;50.284;18.860;2022-12-18T06:14:03;99934.48;;;-4.92;80.81
62057;BME280;48016;50.284;18.860;2022-12-18T06:16:30;99938.22;;;-4.93;81.03
62057;BME280;48016;50.284;18.860;2022-12-18T06:18:57;99938.80;;;-4.93;80.98
62057;BME280;48016;50.284;18.860;2022-12-18T06:21:23;99936.48;;;-4.96;80.92
62057;BME280;48016;50.284;18.860;2022-12-18T06:23:50;99945.98;;;-4.98;81.03
62057;BME280;48016;50.284;18.860;2022-12-18T06:26:16;99953.48;;;-5.00;81.06
62057;BME280;48016;50.284;18.860;2022-12-18T06:28:43;99951.30;;;-5.01;81.07
62057;BME280;48016;50.284;18.860;2022-12-18T06:31:09;99956.60;;;-5.04;80.97
62057;BME280;48016;50.284;18.860;2022-12-18T06:33:36;99958.59;;;-5.05;81.14
62057;BME280;48016;50.284;18.860;2022-12-18T06:36:04;99962.78;;;-5.04;81.06
62057;BME280;48016;50.284;18.860;2022-12-18T06:38:32;99968.00;;;-5.03;81.34
62057;BME280;48016;50.284;18.860;2022-12-18T06:40:58;99971.06;;;-5.04;81.13
62057;BME280;48016;50.284;18.860;2022-12-18T06:43:25;99975.52;;;-5.05;81.17
62057;BME280;48016;50.284;18.860;2022-12-18T06:45:57;99980.45;;;-5.05;81.17
62057;BME280;48016;50.284;18.860;2022-12-18T06:48:23;99981.05;;;-5.04;80.94
62057;BME280;48016;50.284;18.860;2022-12-18T06:50:50;99986.30;;;-5.01;81.01
62057;BME280;48016;50.284;18.860;2022-12-18T06:53:16;99987.66;;;-4.98;81.16
62057;BME280;48016;50.284;18.860;2022-12-18T06:55:43;99985.23;;;-4.93;81.12
62057;BME280;48016;50.284;18.860;2022-12-18T06:58:09;99993.41;;;-4.88;81.10
62057;BME280;48016;50.284;18.860;2022-12-18T07:00:36;99993.63;;;-4.84;81.09
62057;BME280;48016;50.284;18.860;2022-12-18T07:03:02;99997.95;;;-4.78;81.41
62057;BME280;48016;50.284;18.860;2022-12-18T07:05:28;99996.37;;;-4.73;81.31
62057;BME280;48016;50.284;18.860;2022-12-18T07:07:55;99999.44;;;-4.67;81.36
62057;BME280;48016;50.284;18.860;2022-12-18T07:10:21;100001.27;;;-4.62;81.41
62057;BME280;48016;50.284;18.860;2022-12-18T07:12:48;100003.02;;;-4.59;81.11
62057;BME280;48016;50.284;18.860;2022-12-18T07:15:14;100009.13;;;-4.56;81.08
62057;BME280;48016;50.284;18.860;2022-12-18T07:17:41;100011.77;;;-4.51;80.89
62057;BME280;48016;50.284;18.860;2022-12-18T07:20:07;100014.55;;;-4.48;80.83
62057;BME280;48016;50.284;18.860;2022-12-18T07:22:34;100018.34;;;-4.47;80.56
62057;BME280;48016;50.284;18.860;2022-12-18T07:25:00;100015.27;;;-4.49;80.15
62057;BME280;48016;50.284;18.860;2022-12-18T07:27:27;100019.20;;;-4.50;80.22
62057;BME280;48016;50.284;18.860;2022-12-18T07:29:53;100020.55;;;-4.51;80.01
62057;BME280;48016;50.284;18.860;2022-12-18T07:32:21;100026.74;;;-4.52;80.00
62057;BME280;48016;50.284;18.860;2022-12-18T07:34:47;100030.56;;;-4.51;79.98
62057;BME280;48016;50.284;18.860;2022-12-18T07:37:14;100035.06;;;-4.48;79.90
62057;BME280;48016;50.284;18.860;2022-12-18T07:39:40;100031.59;;;-4.46;79.70
62057;BME280;48016;50.284;18.860;2022-12-18T07:42:07;100032.86;;;-4.44;79.69
62057;BME280;48016;50.284;18.860;2022-12-18T07:44:52;100032.32;;;-4.44;79.35
62057;BME280;48016;50.284;18.860;2022-12-18T07:47:18;100031.32;;;-4.44;79.24
62057;BME280;48016;50.284;18.860;2022-12-18T07:49:45;100034.73;;;-4.43;79.31
62057;BME280;48016;50.284;18.860;2022-12-18T07:52:12;100033.27;;;-4.40;79.18
62057;BME280;48016;50.284;18.860;2022-12-18T07:54:38;100031.71;;;-4.36;79.32
62057;BME280;48016;50.284;18.860;2022-12-18T07:57:06;100030.25;;;-4.33;78.84
62057;BME280;48016;50.284;18.860;2022-12-18T07:59:33;100032.31;;;-4.30;79.01
62057;BME280;48016;50.284;18.860;2022-12-18T08:01:59;100035.23;;;-4.25;79.03
62057;BME280;48016;50.284;18.860;2022-12-18T08:04:26;100031.50;;;-4.17;78.78
62057;BME280;48016;50.284;18.860;2022-12-18T08:06:52;100033.72;;;-4.12;78.34
62057;BME280;48016;50.284;18.860;2022-12-18T08:09:18;100035.98;;;-4.09;78.30
62057;BME280;48016;50.284;18.860;2022-12-18T08:11:45;100036.09;;;-4.08;77.86
62057;BME280;48016;50.284;18.860;2022-12-18T08:14:11;100039.34;;;-4.09;77.76
62057;BME280;48016;50.284;18.860;2022-12-18T08:16:38;100039.99;;;-4.09;78.06
62057;BME280;48016;50.284;18.860;2022-12-18T08:19:04;100045.17;;;-4.05;77.89
62057;BME280;48016;50.284;18.860;2022-12-18T08:21:31;100049.87;;;-4.04;77.38
62057;BME280;48016;50.284;18.860;2022-12-18T08:23:58;100053.07;;;-4.02;77.23
62057;BME280;48016;50.284;18.860;2022-12-18T08:26:26;100051.64;;;-4.02;77.17
62057;BME280;48016;50.284;18.860;2022-12-18T08:28:54;100055.27;;;-4.01;76.97
62057;BME280;48016;50.284;18.860;2022-12-18T08:31:21;100057.36;;;-4.01;76.80
62057;BME280;48016;50.284;18.860;2022-12-18T08:33:51;100061.39;;;-3.98;76.82
62057;BME280;48016;50.284;18.860;2022-12-18T08:36:18;100067.98;;;-3.95;76.98
62057;BME280;48016;50.284;18.860;2022-12-18T08:38:45;100067.63;;;-3.92;76.98
62057;BME280;48016;50.284;18.860;2022-12-18T08:41:13;100074.66;;;-3.88;76.85
62057;BME280;48016;50.284;18.860;2022-12-18T08:43:40;100077.52;;;-3.84;76.66
62057;BME280;48016;50.284;18.860;2022-12-18T08:46:26;100075.77;;;-3.79;76.96
62057;BME280;48016;50.284;18.860;2022-12-18T08:48:53;100078.86;;;-3.76;76.63
62057;BME280;48016;50.284;18.860;2022-12-18T08:51:20;100080.15;;;-3.74;76.74
62057;BME280;48016;50.284;18.860;2022-12-18T08:53:47;100082.70;;;-3.71;76.53
62057;BME280;48016;50.284;18.860;2022-12-18T08:56:13;100089.11;;;-3.68;76.20
62057;BME280;48016;50.284;18.860;2022-12-18T08:58:40;100095.48;;;-3.66;76.18
62057;BME280;48016;50.284;18.860;2022-12-18T09:01:08;100095.62;;;-3.65;76.07
62057;BME280;48016;50.284;18.860;2022-12-18T09:03:35;100093.14;;;-3.62;76.22
62057;BME280;48016;50.284;18.860;2022-12-18T09:06:02;100097.61;;;-3.63;75.85
62057;BME280;48016;50.284;18.860;2022-12-18T09:08:29;100105.95;;;-3.65;75.95
62057;BME280;48016;50.284;18.860;2022-12-18T09:10:55;100104.58;;;-3.62;76.46
62057;BME280;48016;50.284;18.860;2022-12-18T09:13:22;100111.52;;;-3.58;76.10
62057;BME280;48016;50.284;18.860;2022-12-18T09:15:53;100111.77;;;-3.50;76.02
62057;BME280;48016;50.284;18.860;2022-12-18T09:18:20;100108.45;;;-3.45;75.93
62057;BME280;48016;50.284;18.860;2022-12-18T09:20:47;100108.60;;;-3.44;76.02
62057;BME280;48016;50.284;18.860;2022-12-18T09:23:13;100108.03;;;-3.43;75.81
62057;BME280;48016;50.284;18.860;2022-12-18T09:25:40;100110.84;;;-3.37;75.97
62057;BME280;48016;50.284;18.860;2022-12-18T09:28:11;100110.17;;;-3.26;75.78
62057;BME280;48016;50.284;18.860;2022-12-18T09:30:38;100107.31;;;-3.10;75.49
62057;BME280;48016;50.284;18.860;2022-12-18T09:33:05;100110.83;;;-2.99;75.67
62057;BME280;48016;50.284;18.860;2022-12-18T09:35:32;100113.48;;;-2.88;75.15
62057;BME280;48016;50.284;18.860;2022-12-18T09:37:58;100108.33;;;-2.87;74.59
62057;BME280;48016;50.284;18.860;2022-12-18T09:40:25;100108.60;;;-2.91;74.53
62057;BME280;48016;50.284;18.860;2022-12-18T09:42:56;100107.67;;;-2.94;74.64
62057;BME280;48016;50.284;18.860;2022-12-18T09:45:23;100109.62;;;-2.99;74.45
62057;BME280;48016;50.284;18.860;2022-12-18T09:47:50;100113.02;;;-3.02;74.07
62057;BME280;48016;50.284;18.860;2022-12-18T09:52:39;100118.81;;;-3.08;74.05
62057;BME280;48016;50.284;18.860;2022-12-18T09:57:50;100110.05;;;-3.11;74.34
62057;BME280;48016;50.284;18.860;2022-12-18T10:00:23;100113.58;;;-3.00;74.59
62057;BME280;48016;50.284;18.860;2022-12-18T10:02:53;100113.16;;;-2.88;74.54
62057;BME280;48016;50.284;18.860;2022-12-18T10:08:49;100108.55;;;-2.51;74.59
62057;BME280;48016;50.284;18.860;2022-12-18T10:11:37;100107.29;;;-2.24;74.28
62057;BME280;48016;50.284;18.860;2022-12-18T10:17:11;100103.83;;;-1.83;73.08
62057;BME280;48016;50.284;18.860;2022-12-18T10:19:52;100098.77;;;-1.65;72.06
62057;BME280;48016;50.284;18.860;2022-12-18T10:27:55;100087.83;;;-1.35;70.32
62057;BME280;48016;50.284;18.860;2022-12-18T10:30:24;100083.09;;;-1.33;69.02
62057;BME280;48016;50.284;18.860;2022-12-18T10:32:52;100084.25;;;-1.36;70.39
62057;BME280;48016;50.284;18.860;2022-12-18T10:35:25;100082.80;;;-1.44;70.94
62057;BME280;48016;50.284;18.860;2022-12-18T10:38:28;100080.99;;;-1.46;71.03
62057;BME280;48016;50.284;18.860;2022-12-18T10:40:56;100074.78;;;-1.53;68.84
62057;BME280;48016;50.284;18.860;2022-12-18T10:43:32;100074.15;;;-1.62;68.51
62057;BME280;48016;50.284;18.860;2022-12-18T10:51:36;100075.64;;;-2.11;70.21
62057;BME280;48016;50.284;18.860;2022-12-18T10:54:06;100081.35;;;-2.28;70.93
62057;BME280;48016;50.284;18.860;2022-12-18T10:56:34;100083.09;;;-2.37;70.79
62057;BME280;48016;50.284;18.860;2022-12-18T10:59:03;100073.92;;;-2.41;70.59
62057;BME280;48016;50.284;18.860;2022-12-18T11:04:21;100062.48;;;-2.54;70.43
62057;BME280;48016;50.284;18.860;2022-12-18T11:06:54;100060.14;;;-2.51;70.53
62057;BME280;48016;50.284;18.860;2022-12-18T11:09:24;100058.54;;;-2.40;70.30
62057;BME280;48016;50.284;18.860;2022-12-18T11:11:56;100058.44;;;-2.31;70.46
62057;BME280;48016;50.284;18.860;2022-12-18T11:14:42;100053.52;;;-2.18;70.88
62057;BME280;48016;50.284;18.860;2022-12-18T11:19:58;100048.20;;;-2.25;70.53
62057;BME280;48016;50.284;18.860;2022-12-18T11:22:30;100047.00;;;-2.32;70.93
62057;BME280;48016;50.284;18.860;2022-12-18T11:25:04;100048.77;;;-2.29;70.96
62057;BME280;48016;50.284;18.860;2022-12-18T11:27:32;100052.30;;;-2.21;71.04
62057;BME280;48016;50.284;18.860;2022-12-18T11:33:13;100055.32;;;-1.96;71.39
62057;BME280;48016;50.284;18.860;2022-12-18T11:35:53;100061.98;;;-1.86;71.11
62057;BME280;48016;50.284;18.860;2022-12-18T11:38:35;100064.02;;;-1.83;70.05
62057;BME280;48016;50.284;18.860;2022-12-18T11:43:59;100062.22;;;-1.73;70.63
62057;BME280;48016;50.284;18.860;2022-12-18T11:46:43;100068.94;;;-1.68;70.30
62057;BME280;48016;50.284;18.860;2022-12-18T11:49:25;100072.48;;;-1.63;70.29
62057;BME280;48016;50.284;18.860;2022-12-18T11:52:01;100066.59;;;-1.55;69.82
62057;BME280;48016;50.284;18.860;2022-12-18T11:54:29;100068.74;;;-1.55;69.66
62057;BME280;48016;50.284;18.860;2022-12-18T11:59:52;100070.17;;;-1.65;68.48
62057;BME280;48016;50.284;18.860;2022-12-18T12:16:54;100086.38;;;-2.48;69.39
62057;BME280;48016;50.284;18.860;2022-12-18T12:22:22;100085.90;;;-2.64;69.63
62057;BME280;48016;50.284;18.860;2022-12-18T12:30:55;100089.27;;;-2.88;69.18
62057;BME280;48016;50.284;18.860;2022-12-18T12:39:19;100098.00;;;-3.00;70.35
62057;BME280;48016;50.284;18.860;2022-12-18T12:41:48;100098.55;;;-3.04;70.64
62057;BME280;48016;50.284;18.860;2022-12-18T12:44:39;100099.78;;;-3.02;71.00
62057;BME280;48016;50.284;18.860;2022-12-18T12:47:22;100104.39;;;-2.98;70.95
62057;BME280;48016;50.284;18.860;2022-12-18T12:49:50;100105.54;;;-3.01;70.41
62057;BME280;48016;50.284;18.860;2022-12-18T12:54:56;100107.96;;;-3.03;70.86
62057;BME280;48016;50.284;18.860;2022-12-18T12:57:30;100102.23;;;-3.08;70.79
62057;BME280;48016;50.284;18.860;2022-12-18T13:05:38;100096.02;;;-3.21;70.90
62057;BME280;48016;50.284;18.860;2022-12-18T13:08:50;100105.00;;;-3.25;71.02
62057;BME280;48016;50.284;18.860;2022-12-18T13:10:58;100107.25;;;-3.29;71.26
62057;BME280;48016;50.284;18.860;2022-12-18T13:14:02;100104.33;;;-3.32;71.22
62057;BME280;48016;50.284;18.860;2022-12-18T13:16:29;100105.46;;;-3.35;71.05
62057;BME280;48016;50.284;18.860;2022-12-18T13:18:57;100108.45;;;-3.40;71.30
62057;BME280;48016;50.284;18.860;2022-12-18T13:21:29;100117.33;;;-3.45;71.24
62057;BME280;48016;50.284;18.860;2022-12-18T13:24:15;100117.00;;;-3.52;71.30
62057;BME280;48016;50.284;18.860;2022-12-18T13:26:41;100123.48;;;-3.56;71.48
62057;BME280;48016;50.284;18.860;2022-12-18T13:29:08;100120.25;;;-3.60;71.74
62057;BME280;48016;50.284;18.860;2022-12-18T13:34:28;100119.39;;;-3.69;71.80
62057;BME280;48016;50.284;18.860;2022-12-18T13:39:59;100124.63;;;-3.78;71.98
62057;BME280;48016;50.284;18.860;2022-12-18T13:48:37;100124.73;;;-3.93;72.32
62057;BME280;48016;50.284;18.860;2022-12-18T13:51:10;100120.34;;;-3.95;72.76
62057;BME280;48016;50.284;18.860;2022-12-18T13:53:50;100122.23;;;-3.99;72.98
62057;BME280;48016;50.284;18.860;2022-12-18T13:56:22;100120.38;;;-4.00;72.86
62057;BME280;48016;50.284;18.860;2022-12-18T14:04:22;100114.07;;;-4.29;72.99
62057;BME280;48016;50.284;18.860;2022-12-18T14:06:52;100115.69;;;-4.36;73.10
62057;BME280;48016;50.284;18.860;2022-12-18T14:09:24;100113.49;;;-4.42;73.23
62057;BME280;48016;50.284;18.860;2022-12-18T14:11:52;100118.09;;;-4.47;73.25
62057;BME280;48016;50.284;18.860;2022-12-18T14:14:48;100122.36;;;-4.52;73.13
62057;BME280;48016;50.284;18.860;2022-12-18T14:17:16;100119.72;;;-4.60;73.14
62057;BME280;48016;50.284;18.860;2022-12-18T14:19:48;100118.38;;;-4.65;73.24
62057;BME280;48016;50.284;18.860;2022-12-18T14:22:22;100120.91;;;-4.71;73.48
62057;BME280;48016;50.284;18.860;2022-12-18T14:27:44;100121.16;;;-4.86;73.57
62057;BME280;48016;50.284;18.860;2022-12-18T14:30:30;100123.10;;;-4.96;73.88
62057;BME280;48016;50.284;18.860;2022-12-18T14:33:01;100125.98;;;-5.07;73.68
62057;BME280;48016;50.284;18.860;2022-12-18T14:35:28;100124.30;;;-5.15;73.89
62057;BME280;48016;50.284;18.860;2022-12-18T14:43:24;100128.25;;;-5.36;73.91
62057;BME280;48016;50.284;18.860;2022-12-18T14:45:51;100127.76;;;-5.39;73.97
62057;BME280;48016;50.284;18.860;2022-12-18T14:51:01;100138.96;;;-5.46;74.41
62057;BME280;48016;50.284;18.860;2022-12-18T14:53:44;100136.52;;;-5.51;74.49
62057;BME280;48016;50.284;18.860;2022-12-18T14:56:20;100141.14;;;-5.54;74.63
62057;BME280;48016;50.284;18.860;2022-12-18T14:58:50;100145.90;;;-5.57;74.47
62057;BME280;48016;50.284;18.860;2022-12-18T15:03:56;100150.54;;;-5.66;74.45
62057;BME280;48016;50.284;18.860;2022-12-18T15:06:36;100153.27;;;-5.75;74.41
62057;BME280;48016;50.284;18.860;2022-12-18T15:09:22;100160.99;;;-5.82;74.71
62057;BME280;48016;50.284;18.860;2022-12-18T15:11:49;100156.19;;;-5.92;74.90
62057;BME280;48016;50.284;18.860;2022-12-18T15:14:30;100161.08;;;-6.01;75.05
62057;BME280;48016;50.284;18.860;2022-12-18T15:16:59;100163.05;;;-6.13;75.46
62057;BME280;48016;50.284;18.860;2022-12-18T15:19:39;100167.48;;;-6.21;75.56
62057;BME280;48016;50.284;18.860;2022-12-18T15:22:20;100166.98;;;-6.29;75.56
62057;BME280;48016;50.284;18.860;2022-12-18T15:24:47;100167.42;;;-6.36;75.94